Time;durP1;ratioP1;P1;durP2;ratioP2;P2;SDS_P1;SDS_P2;PMS_P1;PMS_P2;Temp;Humidity;BMP_temperature;BMP_pressure;BME280_temperature;BME280_humidity;BME280_pressure;Samples;Min_cycle;Max_cycle;Signal;HPM_P1;HPM_P2
2023/05/06 00:00:41;;;;;;;13.10;12.17;;;;;;;8.43;100.00;92948.09;5089513;28;20252;-73
2023/05/06 00:03:08;;;;;;;12.83;11.73;;;;;;;8.41;100.00;92944.94;5092508;28;20257;-72
2023/05/06 00:05:34;;;;;;;14.23;13.03;;;;;;;8.52;100.00;92947.31;5093306;28;20229;-72
2023/05/06 00:08:00;;;;;;;13.03;12.03;;;;;;;8.42;100.00;92936.13;5093662;28;20223;-73
2023/05/06 00:10:25;;;;;;;14.03;12.83;;;;;;;8.32;100.00;92947.28;5093104;28;20212;-73
2023/05/06 00:12:51;;;;;;;14.83;13.43;;;;;;;8.40;100.00;92936.38;5093801;28;20204;-73
2023/05/06 00:15:16;;;;;;;13.90;12.80;;;;;;;8.51;100.00;92939.78;5092890;28;20223;-73
2023/05/06 00:17:42;;;;;;;15.13;13.87;;;;;;;8.55;100.00;92930.41;5075391;28;20862;-73
2023/05/06 00:20:09;;;;;;;15.40;14.10;;;;;;;8.52;100.00;92938.72;5075109;28;20220;-73
2023/05/06 00:22:34;;;;;;;14.97;13.43;;;;;;;8.58;100.00;92942.91;5109321;28;20244;-73
2023/05/06 00:24:59;;;;;;;23.07;18.37;;;;;;;8.42;100.00;92947.28;5075189;28;20224;-73
2023/05/06 00:27:25;;;;;;;19.67;17.63;;;;;;;8.37;100.00;92944.69;5093175;28;20208;-73
2023/05/06 00:29:51;;;;;;;18.43;15.83;;;;;;;8.31;100.00;92944.94;5092613;28;20232;-73
2023/05/06 00:32:16;;;;;;;15.53;13.57;;;;;;;8.28;100.00;92946.22;5093079;28;20239;-72
2023/05/06 00:34:42;;;;;;;14.87;13.67;;;;;;;8.45;100.00;92946.00;5092192;28;20265;-73
2023/05/06 00:37:07;;;;;;;12.53;11.43;;;;;;;8.46;100.00;92942.34;5093194;28;20208;-73
2023/05/06 00:39:33;;;;;;;12.80;11.90;;;;;;;8.53;100.00;92943.69;5092407;28;20253;-73
2023/05/06 00:42:02;;;;;;;13.43;12.43;;;;;;;8.47;100.00;92944.72;5093640;28;20185;-73
2023/05/06 00:44:28;;;;;;;13.17;11.90;;;;;;;8.34;100.00;92928.81;5092198;28;20188;-73
2023/05/06 00:46:55;;;;;;;13.53;12.33;;;;;;;8.31;100.00;92917.13;5092908;28;20176;-73
2023/05/06 00:49:21;;;;;;;13.47;12.40;;;;;;;8.40;100.00;92932.97;5092352;28;20770;-73
2023/05/06 00:51:47;;;;;;;14.77;13.57;;;;;;;8.32;100.00;92936.09;5092303;28;20184;-73
2023/05/06 00:54:13;;;;;;;12.30;11.30;;;;;;;8.13;100.00;92915.72;5092909;28;20209;-73
2023/05/06 00:56:40;;;;;;;13.87;12.87;;;;;;;8.18;100.00;92936.56;5092277;28;20246;-73
2023/05/06 00:59:06;;;;;;;14.13;13.00;;;;;;;8.13;100.00;92928.72;5092948;28;20682;-72
2023/05/06 01:01:32;;;;;;;14.27;13.17;;;;;;;8.17;100.00;92921.97;5092234;28;20228;-73
2023/05/06 01:03:57;;;;;;;13.37;12.27;;;;;;;8.18;100.00;92920.16;5091486;28;20193;-73
2023/05/06 01:06:34;;;;;;;14.47;13.27;;;;;;;8.23;100.00;92927.22;5092122;28;20220;-73
2023/05/06 01:09:04;;;;;;;16.80;12.70;;;;;;;8.09;100.00;92927.66;5081364;28;20199;-73
2023/05/06 01:11:44;;;;;;;15.43;14.07;;;;;;;8.04;100.00;92924.28;5090437;28;20204;-72
2023/05/06 01:14:30;;;;;;;15.70;14.30;;;;;;;7.98;100.00;92925.28;5091631;28;20208;-73
2023/05/06 01:17:02;;;;;;;14.80;13.57;;;;;;;7.93;100.00;92920.06;5091436;28;20212;-72
2023/05/06 01:19:38;;;;;;;14.93;13.73;;;;;;;7.88;100.00;92920.03;5091661;28;20200;-73
2023/05/06 01:22:04;;;;;;;13.00;11.83;;;;;;;7.85;100.00;92923.94;5092196;28;20239;-73
2023/05/06 01:24:35;;;;;;;13.80;12.70;;;;;;;7.82;100.00;92916.66;5091975;28;20193;-73
2023/05/06 01:27:00;;;;;;;13.10;12.03;;;;;;;7.81;100.00;92920.28;5092463;28;20825;-74
2023/05/06 01:29:26;;;;;;;14.97;13.77;;;;;;;7.78;100.00;92925.97;5091430;28;20238;-73
2023/05/06 01:31:57;;;;;;;13.13;12.07;;;;;;;7.86;100.00;92920.28;5092457;28;20184;-73
2023/05/06 01:34:36;;;;;;;12.73;11.37;;;;;;;7.90;100.00;92918.78;5091141;28;20224;-73
2023/05/06 01:37:11;;;;;;;11.27;10.37;;;;;;;7.93;100.00;92917.47;5091887;28;20193;-73
2023/05/06 01:39:40;;;;;;;12.37;11.43;;;;;;;7.79;100.00;92919.75;5089645;28;20255;-73
2023/05/06 01:42:08;;;;;;;12.73;11.73;;;;;;;7.86;100.00;92922.13;5092476;28;20180;-73
2023/05/06 01:44:36;;;;;;;13.53;12.50;;;;;;;7.79;100.00;92917.16;5091193;28;20185;-73
2023/05/06 01:47:01;;;;;;;13.30;12.30;;;;;;;7.81;100.00;92915.06;5091829;28;20188;-74
2023/05/06 01:49:28;;;;;;;12.37;11.57;;;;;;;7.84;100.00;92901.56;5091360;28;20193;-73
2023/05/06 01:51:54;;;;;;;12.07;11.07;;;;;;;7.85;100.00;92904.97;5091315;28;20199;-73
2023/05/06 01:54:20;;;;;;;12.47;11.53;;;;;;;7.74;100.00;92904.16;5091250;28;20197;-73
2023/05/06 01:56:45;;;;;;;11.97;11.10;;;;;;;7.76;100.00;92904.69;5091645;28;20189;-73
2023/05/06 01:59:11;;;;;;;12.27;11.37;;;;;;;7.89;100.00;92919.78;5091820;28;20188;-73
2023/05/06 02:01:36;;;;;;;12.67;11.87;;;;;;;7.76;100.00;92904.69;5091053;28;20228;-73
2023/05/06 02:04:02;;;;;;;13.67;12.57;;;;;;;7.84;100.00;92924.19;5107336;28;20219;-73
2023/05/06 02:06:27;;;;;;;13.37;12.43;;;;;;;7.81;100.00;92924.72;5090686;28;20244;-73
2023/05/06 02:08:52;;;;;;;11.00;10.13;;;;;;;7.73;100.00;92918.19;5091623;28;20196;-73
2023/05/06 02:11:18;;;;;;;13.07;12.17;;;;;;;7.82;100.00;92914.06;5091083;28;20213;-73
2023/05/06 02:13:44;;;;;;;12.03;11.13;;;;;;;7.76;100.00;92920.28;5090999;28;20197;-73
2023/05/06 02:16:09;;;;;;;12.43;11.33;;;;;;;7.70;100.00;92915.31;5090655;28;20250;-73
2023/05/06 02:18:35;;;;;;;13.10;12.07;;;;;;;7.68;100.00;92909.56;5090988;28;20207;-73
2023/05/06 02:21:01;;;;;;;13.23;11.80;;;;;;;7.74;100.00;92919.72;5090750;28;20248;-73
2023/05/06 02:23:26;;;;;;;12.10;11.30;;;;;;;7.71;100.00;92914.25;5090432;28;20203;-73
2023/05/06 02:25:52;;;;;;;13.20;12.30;;;;;;;7.67;100.00;92906.19;5090486;28;20224;-73
2023/05/06 02:28:17;;;;;;;13.00;12.00;;;;;;;7.45;100.00;92894.38;5090793;28;20188;-72
2023/05/06 02:30:42;;;;;;;11.77;10.87;;;;;;;7.67;100.00;92898.38;5090308;28;20232;-73
2023/05/06 02:33:08;;;;;;;12.13;11.20;;;;;;;7.74;100.00;92917.13;5090691;28;20224;-73
2023/05/06 02:35:33;;;;;;;13.90;12.57;;;;;;;7.52;100.00;92903.50;5090360;28;20240;-71
2023/05/06 02:38:00;;;;;;;12.50;11.67;;;;;;;7.62;100.00;92911.38;5090594;28;20196;-71
2023/05/06 02:40:25;;;;;;;12.77;11.80;;;;;;;7.61;100.00;92899.41;5090356;28;20255;-71
2023/05/06 02:42:51;;;;;;;14.07;12.67;;;;;;;7.49;100.00;92922.22;5091024;28;20184;-71
2023/05/06 02:45:16;;;;;;;12.53;11.43;;;;;;;7.53;100.00;92918.06;5090241;28;20246;-72
2023/05/06 02:47:42;;;;;;;13.70;12.63;;;;;;;7.32;100.00;92880.03;5090524;28;20189;-71
2023/05/06 02:50:07;;;;;;;12.80;11.87;;;;;;;7.61;100.00;92911.63;5090200;28;20292;-71
2023/05/06 02:52:33;;;;;;;13.30;12.30;;;;;;;7.73;100.00;92907.78;5089903;28;20208;-71
2023/05/06 02:55:00;;;;;;;13.60;12.40;;;;;;;7.66;100.00;92906.44;5090432;28;20274;-71
2023/05/06 02:57:25;;;;;;;13.10;12.10;;;;;;;7.78;100.00;92922.63;5090339;28;20211;-71
2023/05/06 02:59:51;;;;;;;12.03;11.20;;;;;;;7.72;100.00;92926.22;5090124;28;20216;-69
2023/05/06 03:02:16;;;;;;;12.97;11.87;;;;;;;7.73;100.00;92932.97;5090298;28;20203;-70
2023/05/06 03:04:42;;;;;;;13.40;12.23;;;;;;;7.85;100.00;92930.94;5089860;28;20255;-71
2023/05/06 03:07:07;;;;;;;12.63;11.73;;;;;;;7.89;100.00;92932.78;5090198;28;20185;-71
2023/05/06 03:09:33;;;;;;;12.83;11.77;;;;;;;8.03;100.00;92928.69;5089571;28;20187;-72
2023/05/06 03:11:58;;;;;;;11.80;10.80;;;;;;;8.19;100.00;92938.09;5073055;28;20184;-70
2023/05/06 03:14:23;;;;;;;13.47;12.47;;;;;;;8.04;100.00;92932.06;5089623;28;20205;-70
2023/05/06 03:16:49;;;;;;;12.47;11.47;;;;;;;7.94;100.00;92909.41;5089794;28;20199;-71
2023/05/06 03:19:14;;;;;;;14.20;13.03;;;;;;;8.11;100.00;92935.19;5090104;28;20271;-71
2023/05/06 03:21:40;;;;;;;13.00;12.00;;;;;;;8.06;100.00;92928.16;5089072;28;20263;-73
2023/05/06 03:24:05;;;;;;;13.63;12.53;;;;;;;7.95;100.00;92908.38;5090497;28;20214;-71
2023/05/06 03:26:31;;;;;;;14.00;12.80;;;;;;;8.08;100.00;92931.31;5089550;28;21178;-71
2023/05/06 03:28:56;;;;;;;13.30;12.30;;;;;;;7.97;100.00;92924.50;5072408;28;20200;-72
2023/05/06 03:31:22;;;;;;;15.10;13.50;;;;;;;7.99;100.00;92948.44;5089342;28;20223;-69
2023/05/06 03:33:47;;;;;;;16.13;14.73;;;;;;;7.95;100.00;92934.38;5090031;28;20200;-71
2023/05/06 03:36:12;;;;;;;16.03;14.53;;;;;;;7.94;100.00;92932.03;5071145;28;20307;-71
2023/05/06 03:38:39;;;;;;;16.10;14.70;;;;;;;8.01;100.00;92950.78;5089916;28;20196;-71
2023/05/06 03:41:05;;;;;;;15.10;13.90;;;;;;;7.99;100.00;92939.84;5089228;28;20235;-71
2023/05/06 03:43:30;;;;;;;15.97;14.70;;;;;;;8.10;100.00;92950.03;5090154;28;20217;-71
2023/05/06 03:45:56;;;;;;;14.60;13.23;;;;;;;8.26;100.00;92963.13;5089402;28;20216;-73
2023/05/06 03:48:22;;;;;;;13.80;12.10;;;;;;;8.37;100.00;92959.50;5089904;28;20252;-71
2023/05/06 03:50:48;;;;;;;14.80;13.67;;;;;;;8.46;100.00;92952.78;5089245;28;20220;-71
2023/05/06 03:53:13;;;;;;;12.90;12.00;;;;;;;8.43;100.00;92964.47;5089950;28;20218;-70
2023/05/06 03:55:39;;;;;;;14.30;13.20;;;;;;;8.57;100.00;92959.56;5089230;28;20224;-71
2023/05/06 03:58:04;;;;;;;14.60;13.23;;;;;;;8.66;100.00;92968.41;5089858;28;20278;-71
2023/05/06 04:00:30;;;;;;;17.20;15.40;;;;;;;8.71;100.00;92969.22;5089053;28;20223;-71
2023/05/06 04:02:56;;;;;;;26.40;20.97;;;;;;;8.58;100.00;92935.09;5089745;28;20181;-71
2023/05/06 04:05:21;;;;;;;25.17;21.77;;;;;;;9.05;100.00;92966.91;5089299;28;20208;-70
2023/05/06 04:07:47;;;;;;;25.07;21.83;;;;;;;9.16;100.00;92971.09;5089963;28;20201;-71
2023/05/06 04:10:12;;;;;;;24.03;21.73;;;;;;;9.42;100.00;92973.41;5088824;28;20279;-72
2023/05/06 04:12:37;;;;;;;25.73;23.10;;;;;;;9.37;100.00;92959.63;5090344;28;20205;-71
2023/05/06 04:15:03;;;;;;;19.10;17.40;;;;;;;9.64;100.00;92965.31;5089093;28;20225;-71
2023/05/06 04:17:29;;;;;;;21.03;19.07;;;;;;;9.97;100.00;92977.75;5089746;28;20169;-71
2023/05/06 04:19:55;;;;;;;17.23;15.47;;;;;;;10.07;100.00;92974.34;5089327;28;20221;-71
2023/05/06 04:22:20;;;;;;;16.20;14.43;;;;;;;10.17;100.00;92980.31;5089781;28;20189;-72
2023/05/06 04:24:46;;;;;;;14.87;13.63;;;;;;;10.56;100.00;92981.22;5089039;28;20255;-71
2023/05/06 04:27:11;;;;;;;15.83;14.53;;;;;;;10.94;100.00;92983.06;5089724;28;20185;-70
2023/05/06 04:29:37;;;;;;;15.63;14.33;;;;;;;10.90;98.03;92989.91;5088539;28;20230;-71
2023/05/06 04:32:03;;;;;;;13.43;12.27;;;;;;;11.08;95.41;92989.25;5090038;28;20185;-71
2023/05/06 04:34:29;;;;;;;14.20;13.03;;;;;;;11.72;93.84;92999.47;5088500;28;20229;-72
2023/05/06 04:36:55;;;;;;;14.70;13.50;;;;;;;11.89;91.67;92986.00;5089620;28;20216;-71
2023/05/06 04:39:20;;;;;;;15.17;13.87;;;;;;;11.53;91.10;92993.38;5088341;28;20192;-71
2023/05/06 04:41:46;;;;;;;13.80;12.70;;;;;;;11.95;89.81;92988.31;5089700;28;20200;-72
2023/05/06 04:44:12;;;;;;;14.93;13.63;;;;;;;12.01;89.49;93005.50;5089386;28;20213;-71
2023/05/06 04:46:37;;;;;;;14.37;13.23;;;;;;;11.64;90.39;92994.88;5088899;28;20246;-71
2023/05/06 04:49:03;;;;;;;15.23;13.93;;;;;;;12.09;89.90;93007.53;5090233;28;20180;-70
2023/05/06 04:51:28;;;;;;;15.23;13.93;;;;;;;11.84;87.85;92954.66;5092038;28;20213;-69
2023/05/06 04:53:54;;;;;;;14.30;13.20;;;;;;;12.21;86.84;93013.16;5092797;28;20212;-71
2023/05/06 04:56:20;;;;;;;15.30;14.00;;;;;;;12.33;86.81;93008.28;5092381;28;20227;-71
2023/05/06 04:58:45;;;;;;;14.10;12.83;;;;;;;12.86;85.17;92996.66;5092366;28;20254;-70
2023/05/06 05:01:10;;;;;;;13.20;12.10;;;;;;;14.02;81.56;93019.28;5092332;28;20229;-71
2023/05/06 05:03:36;;;;;;;15.10;13.73;;;;;;;14.45;77.94;93018.00;5092126;28;20252;-73
2023/05/06 05:06:01;;;;;;;13.87;12.57;;;;;;;14.27;77.08;93034.63;5092182;28;20292;-71
2023/05/06 05:08:27;;;;;;;14.47;13.37;;;;;;;14.08;78.13;93038.34;5092239;28;20184;-69
2023/05/06 05:10:52;;;;;;;14.27;13.07;;;;;;;13.34;81.41;93020.91;5091982;28;20239;-70
2023/05/06 05:13:18;;;;;;;14.33;13.10;;;;;;;13.69;80.41;93043.19;5092607;28;20270;-71
2023/05/06 05:15:43;;;;;;;15.13;13.80;;;;;;;13.85;80.73;93037.41;5091980;28;20220;-70
2023/05/06 05:18:09;;;;;;;15.63;14.37;;;;;;;14.55;79.49;93032.81;5092445;28;20185;-70
2023/05/06 05:20:34;;;;;;;15.47;14.17;;;;;;;13.58;79.68;93026.84;5092012;28;20217;-71
2023/05/06 05:22:59;;;;;;;15.70;14.20;;;;;;;13.75;79.28;93034.97;5092152;28;20188;-70
2023/05/06 05:25:25;;;;;;;14.93;13.67;;;;;;;14.74;75.83;93045.84;5091870;28;20231;-69
2023/05/06 05:27:51;;;;;;;14.83;13.53;;;;;;;14.25;78.57;93044.66;5091733;28;20169;-71
2023/05/06 05:30:16;;;;;;;13.70;12.60;;;;;;;14.26;78.47;93040.94;5091983;28;20262;-70
2023/05/06 05:32:42;;;;;;;14.27;13.00;;;;;;;14.21;78.31;93038.38;5091835;28;20230;-70
2023/05/06 05:35:10;;;;;;;13.87;12.60;;;;;;;14.22;79.46;93039.16;5091441;28;20237;-70
2023/05/06 05:37:36;;;;;;;14.40;13.30;;;;;;;14.02;78.98;93024.53;5107181;28;21497;-70
2023/05/06 05:40:02;;;;;;;13.47;12.37;;;;;;;14.09;80.46;93045.94;5091504;28;20262;-70
2023/05/06 05:42:29;;;;;;;15.03;13.43;;;;;;;14.04;80.54;93043.41;5092138;28;20184;-70
2023/05/06 05:44:55;;;;;;;13.40;12.13;;;;;;;13.88;80.38;93046.56;5091595;28;20231;-71
2023/05/06 05:47:20;;;;;;;15.73;14.23;;;;;;;13.47;81.23;93043.78;5091770;28;20185;-70
2023/05/06 05:49:46;;;;;;;15.23;13.83;;;;;;;13.25;82.74;93030.47;5091475;28;20236;-72
2023/05/06 05:52:11;;;;;;;15.70;14.30;;;;;;;13.31;83.78;93039.06;5091773;28;20177;-70
2023/05/06 05:54:36;;;;;;;15.77;14.47;;;;;;;13.31;82.59;93033.81;5091036;28;20225;-71
2023/05/06 05:57:02;;;;;;;14.20;12.43;;;;;;;13.11;83.46;93036.69;5091614;28;20181;-70
2023/05/06 05:59:28;;;;;;;17.00;15.50;;;;;;;12.67;85.25;93024.66;5090725;28;20210;-70
2023/05/06 06:01:53;;;;;;;17.83;14.70;;;;;;;12.56;87.13;93040.78;5091225;28;20173;-71
2023/05/06 06:04:18;;;;;;;16.37;14.83;;;;;;;12.43;89.48;93028.34;5091431;28;20196;-70
2023/05/06 06:06:45;;;;;;;19.43;15.10;;;;;;;12.53;91.19;93046.56;5091343;28;20180;-70
2023/05/06 06:09:10;;;;;;;15.93;14.37;;;;;;;12.74;90.49;93040.81;5099034;28;20184;-70
2023/05/06 06:11:36;;;;;;;19.97;17.77;;;;;;;13.04;87.14;93042.31;5089332;28;20813;-69
2023/05/06 06:14:01;;;;;;;16.87;14.77;;;;;;;13.28;86.41;93044.84;5082304;28;20275;-70
2023/05/06 06:16:27;;;;;;;17.13;15.33;;;;;;;13.28;86.34;93050.88;5090432;28;20220;-69
2023/05/06 06:18:53;;;;;;;16.20;14.63;;;;;;;13.31;85.25;93057.41;5091557;28;20192;-70
2023/05/06 06:21:18;;;;;;;16.10;14.50;;;;;;;13.15;86.03;93040.34;5090584;28;20228;-72
2023/05/06 06:23:43;;;;;;;14.63;13.23;;;;;;;13.17;85.91;93031.09;5091167;28;20187;-69
2023/05/06 06:26:09;;;;;;;16.07;14.77;;;;;;;13.06;86.38;93040.16;5090440;28;20221;-70
2023/05/06 06:28:35;;;;;;;15.97;14.30;;;;;;;12.98;87.28;93051.25;5091021;28;20192;-71
2023/05/06 06:31:00;;;;;;;15.83;14.33;;;;;;;12.69;89.02;93048.75;5090156;28;20272;-71
2023/05/06 06:33:26;;;;;;;15.60;14.23;;;;;;;12.87;88.69;93047.22;5091067;28;20224;-69
2023/05/06 06:35:52;;;;;;;16.90;15.00;;;;;;;12.98;87.91;93054.66;5089988;28;21167;-69
2023/05/06 06:38:17;;;;;;;16.93;15.00;;;;;;;13.21;86.53;93060.97;5090664;28;20193;-71
2023/05/06 06:40:42;;;;;;;20.30;16.57;;;;;;;13.12;87.21;93059.25;5089663;28;20216;-70
2023/05/06 06:43:08;;;;;;;16.00;14.40;;;;;;;13.15;87.46;93062.09;5091295;28;20188;-69
2023/05/06 06:45:33;;;;;;;16.73;15.00;;;;;;;13.13;85.85;93051.09;5089685;28;20931;-71
2023/05/06 06:47:59;;;;;;;16.13;14.63;;;;;;;13.22;85.93;93062.50;5106573;28;20181;-71
2023/05/06 06:50:25;;;;;;;19.07;17.30;;;;;;;13.13;86.61;93058.97;5089876;28;20235;-70
2023/05/06 06:52:51;;;;;;;21.20;19.10;;;;;;;13.18;86.87;93065.97;5090054;28;20203;-71
2023/05/06 06:55:16;;;;;;;19.47;17.57;;;;;;;12.96;88.42;93048.91;5089449;28;20232;-70
2023/05/06 06:57:42;;;;;;;23.57;21.03;;;;;;;13.18;88.02;93058.91;5090440;28;20180;-70
2023/05/06 07:00:08;;;;;;;18.20;16.40;;;;;;;13.17;86.27;93065.19;5089854;28;20224;-70
2023/05/06 07:02:33;;;;;;;18.00;15.70;;;;;;;13.15;87.64;93061.31;5090059;28;20215;-70
2023/05/06 07:04:59;;;;;;;15.17;13.77;;;;;;;13.45;85.49;93066.91;5090115;28;20311;-71
2023/05/06 07:07:24;;;;;;;14.80;13.50;;;;;;;13.64;83.16;93057.19;5090507;28;20265;-71
2023/05/06 07:09:50;;;;;;;16.77;15.13;;;;;;;14.33;80.73;93072.84;5081130;28;20224;-71
2023/05/06 07:12:15;;;;;;;16.37;14.77;;;;;;;14.93;78.21;93083.31;5089923;28;20194;-70
2023/05/06 07:14:41;;;;;;;13.43;12.37;;;;;;;15.17;75.60;93087.28;5089345;28;20247;-72
2023/05/06 07:17:06;;;;;;;14.10;12.90;;;;;;;15.55;74.67;93085.19;5090217;28;20207;-70
2023/05/06 07:19:32;;;;;;;15.53;13.70;;;;;;;15.83;73.44;93076.13;5089347;28;20172;-70
2023/05/06 07:21:57;;;;;;;13.57;12.37;;;;;;;16.29;71.05;93102.94;5090348;28;20189;-70
2023/05/06 07:24:23;;;;;;;13.53;12.33;;;;;;;16.22;72.02;93097.31;5089329;28;20181;-71
2023/05/06 07:26:48;;;;;;;19.57;17.77;;;;;;;15.65;74.36;93084.97;5090255;28;20181;-70
2023/05/06 07:29:14;;;;;;;14.50;13.30;;;;;;;16.30;69.77;93107.13;5089979;28;20188;-71
2023/05/06 07:31:39;;;;;;;14.23;13.10;;;;;;;15.98;72.34;93107.38;5089529;28;20246;-71
2023/05/06 07:34:05;;;;;;;14.63;13.43;;;;;;;16.20;72.50;93104.75;5089750;28;20278;-71
2023/05/06 07:36:37;;;;;;;13.87;12.67;;;;;;;16.51;71.02;93089.78;5089406;28;20219;-71
2023/05/06 07:39:03;;;;;;;14.13;13.13;;;;;;;16.15;72.41;93104.88;5089679;28;20169;-70
2023/05/06 07:41:28;;;;;;;13.47;12.27;;;;;;;15.90;71.87;93093.09;5089803;28;20242;-68
2023/05/06 07:43:54;;;;;;;13.33;12.13;;;;;;;17.37;66.57;93083.69;5089740;28;20176;-70
2023/05/06 07:46:19;;;;;;;14.67;13.43;;;;;;;17.98;66.50;93095.91;5089389;28;20228;-71
2023/05/06 07:48:44;;;;;;;12.07;11.03;;;;;;;17.03;67.34;93091.53;5089546;28;20236;-71
2023/05/06 07:51:10;;;;;;;13.87;12.07;;;;;;;17.01;66.45;93072.59;5089399;28;20260;-72
2023/05/06 07:53:36;;;;;;;11.97;11.07;;;;;;;18.06;62.89;93107.53;5089574;28;20207;-70
2023/05/06 07:56:02;;;;;;;11.20;10.50;;;;;;;18.15;60.87;93089.84;5089508;28;20224;-71
2023/05/06 07:58:29;;;;;;;12.53;11.50;;;;;;;18.52;60.01;93105.03;5089704;28;20721;-71
2023/05/06 08:00:54;;;;;;;12.63;11.33;;;;;;;18.88;59.87;93102.75;5104955;28;20225;-71
2023/05/06 08:03:20;;;;;;;12.60;11.57;;;;;;;19.00;58.22;93102.88;5089760;28;20201;-69
2023/05/06 08:05:45;;;;;;;13.73;12.20;;;;;;;18.07;59.97;93098.53;5088987;28;20829;-71
2023/05/06 08:08:10;;;;;;;12.07;11.17;;;;;;;17.70;62.15;93107.09;5089759;28;20185;-70
2023/05/06 08:10:36;;;;;;;13.23;12.20;;;;;;;16.88;66.00;93070.06;5088999;28;20232;-69
2023/05/06 08:13:02;;;;;;;13.07;12.07;;;;;;;17.24;63.91;93081.19;5090049;28;20209;-70
2023/05/06 08:15:27;;;;;;;13.43;12.37;;;;;;;16.56;67.32;93075.69;5089016;28;20231;-70
2023/05/06 08:17:54;;;;;;;13.50;12.07;;;;;;;16.73;66.14;93096.84;5089385;28;20181;-71
2023/05/06 08:20:20;;;;;;;15.03;12.83;;;;;;;16.88;66.85;93097.22;5089244;28;20276;-71
2023/05/06 08:22:45;;;;;;;13.17;12.17;;;;;;;17.16;65.78;93093.28;5090064;28;20193;-71
2023/05/06 08:25:10;;;;;;;13.73;12.47;;;;;;;17.23;64.25;93093.59;5093202;28;20239;-71
2023/05/06 08:27:36;;;;;;;13.70;12.37;;;;;;;17.44;65.83;93101.75;5093100;28;20200;-70
2023/05/06 08:30:01;;;;;;;14.07;12.80;;;;;;;17.08;63.81;93099.31;5092784;28;20311;-71
2023/05/06 08:32:27;;;;;;;13.37;12.23;;;;;;;17.52;64.68;93098.38;5093032;28;20202;-70
2023/05/06 08:34:52;;;;;;;13.37;12.30;;;;;;;17.58;63.34;93103.19;5092509;28;20236;-71
2023/05/06 08:37:17;;;;;;;14.90;13.70;;;;;;;17.38;63.70;93101.13;5092755;28;20624;-70
2023/05/06 08:39:44;;;;;;;14.10;12.67;;;;;;;17.47;62.82;93101.16;5092613;28;20227;-70
2023/05/06 08:42:10;;;;;;;13.67;12.57;;;;;;;16.88;65.84;93097.22;5093471;28;20185;-72
2023/05/06 08:44:36;;;;;;;14.90;13.43;;;;;;;16.79;65.54;93106.97;5092022;28;20188;-70
2023/05/06 08:47:01;;;;;;;13.70;12.33;;;;;;;16.73;66.03;93110.03;5093078;28;20176;-71
2023/05/06 08:49:27;;;;;;;14.90;13.53;;;;;;;16.96;65.88;93114.16;5092238;28;20197;-70
2023/05/06 08:51:52;;;;;;;14.23;12.73;;;;;;;16.87;66.65;93114.13;5092555;28;20184;-70
2023/05/06 08:54:18;;;;;;;14.83;13.43;;;;;;;16.93;67.00;93106.88;5092706;28;20242;-71
2023/05/06 08:56:52;;;;;;;13.83;12.77;;;;;;;17.06;68.69;93082.22;5092356;28;20208;-70
2023/05/06 08:59:22;;;;;;;15.50;13.17;;;;;;;17.69;63.70;93108.94;5092233;28;20184;-73
2023/05/06 09:01:47;;;;;;;14.23;13.03;;;;;;;17.11;67.13;93103.97;5092643;28;20189;-71
2023/05/06 09:04:15;;;;;;;13.80;12.70;;;;;;;17.32;65.64;93097.03;5092993;28;20259;-72
2023/05/06 09:06:40;;;;;;;13.83;12.57;;;;;;;17.55;64.58;93092.47;5091829;28;20220;-71
2023/05/06 09:09:06;;;;;;;13.50;11.93;;;;;;;17.96;62.56;93094.66;5092580;28;20215;-72
2023/05/06 09:11:31;;;;;;;16.10;14.17;;;;;;;18.20;61.39;93097.59;5092058;28;20227;-72
2023/05/06 09:14:15;;;;;;;11.90;10.90;;;;;;;17.78;64.34;93093.88;5092996;28;20695;-72
2023/05/06 09:16:43;;;;;;;14.00;12.90;;;;;;;18.45;63.36;93088.88;5091631;28;20218;-72
2023/05/06 09:19:09;;;;;;;13.17;12.17;;;;;;;18.98;58.84;93097.13;5093019;28;20216;-72
2023/05/06 09:21:39;;;;;;;14.13;12.93;;;;;;;18.90;57.05;93100.56;5091135;28;20217;-72
2023/05/06 09:24:06;;;;;;;12.70;11.63;;;;;;;17.78;60.79;93091.22;5092327;28;20220;-72
2023/05/06 09:26:33;;;;;;;15.70;12.70;;;;;;;18.07;59.71;93082.69;5091690;28;20209;-72
2023/05/06 09:29:00;;;;;;;13.87;12.50;;;;;;;17.78;61.92;93082.53;5092093;28;20253;-72
2023/05/06 09:31:26;;;;;;;13.03;11.97;;;;;;;18.12;60.60;93080.66;5091662;28;20952;-74
2023/05/06 09:33:57;;;;;;;13.23;12.13;;;;;;;17.93;59.65;93084.72;5091830;28;20211;-70
2023/05/06 09:36:25;;;;;;;12.63;11.77;;;;;;;17.37;64.61;93083.69;5090789;28;20284;-70
2023/05/06 09:38:52;;;;;;;13.70;12.40;;;;;;;18.26;61.64;93080.47;5091865;28;20182;-70
2023/05/06 09:41:19;;;;;;;14.70;13.30;;;;;;;18.32;59.03;93081.88;5090935;28;20236;-70
2023/05/06 09:43:47;;;;;;;13.87;12.80;;;;;;;17.27;64.17;93065.53;5092083;28;20200;-70
2023/05/06 09:46:16;;;;;;;14.67;11.63;;;;;;;18.00;61.46;93059.38;5091516;28;20231;-71
2023/05/06 09:48:41;;;;;;;13.90;12.67;;;;;;;18.16;59.66;93078.97;5091707;28;20190;-73
2023/05/06 09:51:07;;;;;;;12.77;11.53;;;;;;;18.32;62.30;93064.13;5091158;28;20237;-72
2023/05/06 09:53:36;;;;;;;12.90;11.80;;;;;;;18.84;59.76;93070.09;5091222;28;20209;-72
2023/05/06 09:56:05;;;;;;;13.27;12.20;;;;;;;17.89;62.03;93067.91;5080277;28;20229;-70
2023/05/06 09:58:31;;;;;;;12.90;11.80;;;;;;;17.85;62.63;93059.06;5091861;28;20178;-72
2023/05/06 10:00:57;;;;;;;12.97;11.97;;;;;;;18.43;60.42;93065.38;5091113;28;20248;-69
2023/05/06 10:03:24;;;;;;;13.13;12.13;;;;;;;17.65;61.97;93060.47;5091390;28;20182;-71
2023/05/06 10:05:51;;;;;;;17.53;12.70;;;;;;;17.91;62.36;93055.97;5090979;28;20228;-69
2023/05/06 10:08:18;;;;;;;13.47;12.50;;;;;;;17.63;63.70;93061.88;5091245;28;20185;-69
2023/05/06 10:10:46;;;;;;;12.93;11.97;;;;;;;18.44;62.10;93061.69;5090980;28;20227;-69
2023/05/06 10:13:13;;;;;;;13.00;12.00;;;;;;;19.49;58.49;93065.09;5091797;28;20212;-69
2023/05/06 10:15:39;;;;;;;18.53;16.83;;;;;;;19.76;54.06;93063.81;5090417;28;20236;-69
2023/05/06 10:18:07;;;;;;;12.70;11.60;;;;;;;19.60;55.78;93045.09;5091139;28;20251;-68
2023/05/06 10:20:39;;;;;;;12.83;11.70;;;;;;;19.72;53.79;93062.94;5090303;28;20228;-68
2023/05/06 10:23:22;;;;;;;12.63;11.53;;;;;;;18.91;55.66;93054.50;5091135;28;20253;-69
2023/05/06 10:25:52;;;;;;;11.80;11.00;;;;;;;18.36;60.13;93059.78;5090821;28;20231;-68
2023/05/06 10:28:19;;;;;;;12.13;11.33;;;;;;;18.22;57.66;93055.78;5090030;28;20190;-68
2023/05/06 10:30:45;;;;;;;12.43;11.43;;;;;;;18.00;59.44;93042.75;5090227;28;20229;-67
2023/05/06 10:33:11;;;;;;;12.37;11.47;;;;;;;18.21;60.34;93056.88;5091242;28;20263;-68
2023/05/06 10:35:40;;;;;;;12.03;11.00;;;;;;;18.11;60.31;93055.31;5089956;28;20233;-68
2023/05/06 10:38:10;;;;;;;12.27;11.37;;;;;;;18.93;58.55;93049.66;5090596;28;20195;-68
2023/05/06 10:40:36;;;;;;;13.03;11.93;;;;;;;19.37;55.71;93041.19;5072248;28;20230;-70
2023/05/06 10:43:24;;;;;;;15.93;14.40;;;;;;;19.33;54.94;93050.84;5091297;28;20183;-69
2023/05/06 10:46:02;;;;;;;11.40;10.60;;;;;;;19.27;55.33;93044.16;5089921;28;20233;-70
2023/05/06 10:48:28;;;;;;;12.13;10.97;;;;;;;18.86;56.77;93044.84;5091481;28;20187;-70
2023/05/06 10:51:15;;;;;;;14.83;13.37;;;;;;;19.10;56.67;93046.91;5089829;28;20249;-70
2023/05/06 10:54:03;;;;;;;11.57;10.70;;;;;;;19.17;54.37;93052.50;5090168;28;20210;-70
2023/05/06 10:56:33;;;;;;;10.80;10.13;;;;;;;18.83;55.07;93047.38;5088723;28;20231;-71
2023/05/06 10:59:11;;;;;;;10.40;9.77;;;;;;;19.11;52.72;93048.50;5072098;28;20190;-75
2023/05/06 11:01:38;;;;;;;11.73;10.40;;;;;;;19.20;52.80;93046.56;5089559;28;20228;-69
2023/05/06 11:04:14;;;;;;;9.47;8.87;;;;;;;19.17;52.03;93050.59;5090598;28;20196;-68
2023/05/06 11:06:50;;;;;;;10.87;10.07;;;;;;;19.16;51.42;93046.41;5089434;28;20249;-69
2023/05/06 11:09:20;;;;;;;9.93;9.33;;;;;;;19.03;51.36;93038.72;5090112;28;20384;-68
2023/05/06 11:12:02;;;;;;;11.03;10.13;;;;;;;18.72;50.93;93040.88;5090311;28;20293;-69
2023/05/06 11:14:34;;;;;;;9.87;9.20;;;;;;;18.60;51.08;93036.25;5089631;28;20226;-74